Time;durP1;ratioP1;P1;durP2;ratioP2;P2;SDS_P1;SDS_P2;PMS_P1;PMS_P2;Temp;Humidity;BMP_temperature;BMP_pressure;BME280_temperature;BME280_humidity;BME280_pressure;Samples;Min_cycle;Max_cycle;Signal;HPM_P1;HPM_P2
2023/10/29 00:01:10;;;;;;;5.00;2.23;;;;;;;18.79;68.30;98763.91;5109885;28;21130;-64
2023/10/29 00:03:35;;;;;;;4.70;1.83;;;;;;;18.77;68.32;98772.09;5130136;27;20273;-64
2023/10/29 00:06:00;;;;;;;4.60;1.40;;;;;;;18.79;68.14;98763.09;5129978;27;20177;-64
2023/10/29 00:08:26;;;;;;;4.80;1.33;;;;;;;18.79;68.10;98763.09;5120887;27;20192;-64
2023/10/29 00:10:51;;;;;;;7.37;2.10;;;;;;;18.78;68.39;98762.31;5090831;28;20193;-64
2023/10/29 00:13:17;;;;;;;4.10;1.87;;;;;;;18.79;68.14;98752.50;5108883;28;20186;-64
2023/10/29 00:15:42;;;;;;;5.63;2.37;;;;;;;18.80;68.28;98753.28;5108156;28;20202;-63
2023/10/29 00:18:08;;;;;;;5.27;1.90;;;;;;;18.80;68.09;98765.53;5110712;28;20288;-64
2023/10/29 00:20:34;;;;;;;5.03;1.80;;;;;;;18.81;67.77;98750.00;5110488;28;20221;-64
2023/10/29 00:23:00;;;;;;;6.50;2.30;;;;;;;18.78;68.21;98750.03;5115302;28;20450;-64
2023/10/29 00:25:25;;;;;;;3.40;1.50;;;;;;;18.78;67.99;98753.72;5129257;28;20414;-64
2023/10/29 00:27:51;;;;;;;3.63;1.70;;;;;;;18.78;68.40;98756.59;5129206;28;20158;-64
2023/10/29 00:30:16;;;;;;;3.73;1.80;;;;;;;18.80;67.63;98756.97;5121065;28;20186;-64
2023/10/29 00:32:42;;;;;;;5.20;1.67;;;;;;;18.78;68.45;98739.44;5109861;28;20162;-64
2023/10/29 00:35:08;;;;;;;4.27;2.07;;;;;;;18.79;68.14;98741.06;5111890;28;20730;-64
2023/10/29 00:37:34;;;;;;;4.00;1.93;;;;;;;18.80;68.12;98731.22;5109699;28;20174;-64
2023/10/29 00:40:00;;;;;;;2.53;1.30;;;;;;;18.79;68.02;98745.94;5109872;28;20516;-63
2023/10/29 00:42:25;;;;;;;4.40;1.97;;;;;;;18.82;67.82;98734.47;5120859;27;20636;-63
2023/10/29 00:44:51;;;;;;;4.57;2.33;;;;;;;18.79;68.14;98735.34;5120630;27;20193;-64
2023/10/29 00:47:16;;;;;;;4.17;1.60;;;;;;;18.80;68.04;98736.13;5115045;27;20181;-64
2023/10/29 00:49:42;;;;;;;3.17;1.60;;;;;;;18.78;68.44;98727.16;5118171;27;20746;-64
2023/10/29 00:52:07;;;;;;;4.20;1.63;;;;;;;18.78;68.12;98736.56;5133133;27;20157;-64
2023/10/29 00:54:33;;;;;;;3.60;1.50;;;;;;;18.77;68.32;98723.50;5114347;27;20190;-64
2023/10/29 00:56:58;;;;;;;6.17;2.20;;;;;;;18.78;68.26;98722.28;5153853;27;20588;-64
2023/10/29 00:59:24;;;;;;;4.53;1.60;;;;;;;18.79;68.24;98723.06;5115799;27;20661;-64
2023/10/29 01:01:49;;;;;;;5.13;1.80;;;;;;;18.79;67.72;98715.31;5095095;28;20204;-64
2023/10/29 01:04:15;;;;;;;3.17;1.50;;;;;;;18.78;67.84;98712.88;5113680;27;20193;-64
2023/10/29 01:06:41;;;;;;;4.03;1.73;;;;;;;18.76;67.96;98701.06;5097048;28;20228;-64
2023/10/29 01:09:07;;;;;;;5.07;2.20;;;;;;;18.77;68.36;98711.25;5113319;28;20245;-64
2023/10/29 01:11:32;;;;;;;3.20;1.80;;;;;;;18.78;68.04;98704.31;5120035;27;20212;-64
2023/10/29 01:13:58;;;;;;;3.70;1.77;;;;;;;18.76;68.24;98695.34;5129835;27;20176;-64
2023/10/29 01:16:23;;;;;;;5.63;1.87;;;;;;;18.76;68.23;98693.28;5112649;28;20293;-63
2023/10/29 01:18:49;;;;;;;4.17;1.50;;;;;;;18.76;68.32;98689.63;5112850;28;20265;-64
2023/10/29 01:21:15;;;;;;;3.30;1.73;;;;;;;18.76;68.02;98696.13;5112154;28;20253;-64
2023/10/29 01:23:40;;;;;;;2.57;1.37;;;;;;;18.77;68.00;98692.03;5117933;27;20185;-64
2023/10/29 01:26:06;;;;;;;4.07;1.60;;;;;;;18.77;67.83;98686.31;5093929;28;20985;-64
2023/10/29 01:28:31;;;;;;;4.17;1.60;;;;;;;18.75;67.74;98685.94;5113143;28;20180;-64
2023/10/29 01:30:58;;;;;;;4.97;1.80;;;;;;;18.76;68.25;98684.69;5113015;28;20173;-63
2023/10/29 01:33:23;;;;;;;5.20;1.73;;;;;;;18.76;68.28;98683.91;5118704;27;20199;-64
2023/10/29 01:35:49;;;;;;;4.13;1.70;;;;;;;18.75;68.26;98671.66;5133296;27;20418;-64
2023/10/29 01:38:14;;;;;;;4.00;1.63;;;;;;;18.75;68.18;98671.66;5126237;27;20181;-64
2023/10/29 01:40:39;;;;;;;2.70;1.50;;;;;;;18.75;68.09;98660.22;5113023;28;20205;-63
2023/10/29 01:43:05;;;;;;;3.50;1.67;;;;;;;18.76;67.97;98663.91;5112575;28;20162;-64
2023/10/29 01:45:30;;;;;;;3.53;1.40;;;;;;;18.76;67.64;98656.13;5112667;28;20181;-64
2023/10/29 01:47:56;;;;;;;4.60;1.73;;;;;;;18.74;68.27;98658.59;5118676;27;20299;-64
2023/10/29 01:50:21;;;;;;;3.33;1.50;;;;;;;18.76;68.05;98658.19;5112735;28;20166;-64
2023/10/29 01:52:47;;;;;;;4.50;2.00;;;;;;;18.76;67.97;98656.13;5124591;27;20183;-63
2023/10/29 01:55:13;;;;;;;7.73;1.70;;;;;;;18.75;68.19;98654.50;5132504;27;20736;-63
2023/10/29 01:57:38;;;;;;;3.43;1.60;;;;;;;18.76;67.82;98656.13;5117807;27;20442;-63
2023/10/29 02:00:38;;;;;;;4.27;1.50;;;;;;;18.73;68.17;98639.81;5112344;28;20212;-64
2023/10/29 02:03:04;;;;;;;5.20;1.73;;;;;;;18.73;68.08;98639.00;5123252;27;20172;-59
2023/10/29 02:05:29;;;;;;;3.50;1.80;;;;;;;18.73;67.85;98645.53;5132639;27;21130;-59
2023/10/29 02:07:55;;;;;;;3.93;1.53;;;;;;;18.77;67.62;98640.56;5127344;27;20193;-59
2023/10/29 02:10:20;;;;;;;2.70;1.83;;;;;;;18.75;68.19;98645.91;5111167;28;20162;-59
2023/10/29 02:12:46;;;;;;;2.90;1.40;;;;;;;18.75;67.94;98643.06;5111220;28;20200;-59
2023/10/29 02:15:11;;;;;;;3.67;1.73;;;;;;;18.75;67.59;98657.34;5116343;27;20204;-59
2023/10/29 02:17:36;;;;;;;3.20;1.50;;;;;;;18.76;67.88;98653.25;5131544;27;20234;-58
2023/10/29 02:20:02;;;;;;;4.07;1.53;;;;;;;18.76;68.00;98658.97;5131334;27;20224;-59
2023/10/29 02:22:30;;;;;;;3.07;1.53;;;;;;;18.75;68.20;98653.66;5130849;27;20958;-59
2023/10/29 02:24:56;;;;;;;3.23;1.67;;;;;;;18.76;67.73;98661.84;5130027;27;20169;-59
2023/10/29 02:27:21;;;;;;;3.93;1.83;;;;;;;18.76;67.60;98658.97;5113699;27;20422;-58
2023/10/29 02:29:47;;;;;;;3.67;1.40;;;;;;;18.76;68.02;98644.69;5132290;27;20519;-59
2023/10/29 02:32:12;;;;;;;4.30;1.83;;;;;;;18.74;68.15;98658.59;5128588;27;20253;-59
2023/10/29 02:34:38;;;;;;;3.90;1.73;;;;;;;18.72;68.04;98666.75;5132411;27;20210;-59
2023/10/29 02:37:03;;;;;;;3.97;1.53;;;;;;;18.74;68.05;98664.31;5132317;27;20157;-59
2023/10/29 02:39:29;;;;;;;4.10;1.60;;;;;;;18.73;68.09;98653.28;5114442;27;20230;-59
2023/10/29 02:41:54;;;;;;;2.43;1.30;;;;;;;18.73;68.33;98648.41;5111701;28;20162;-59
2023/10/29 02:44:19;;;;;;;4.83;1.33;;;;;;;18.74;68.04;98655.72;5111657;28;20222;-58
2023/10/29 02:46:45;;;;;;;4.47;1.73;;;;;;;18.73;68.06;98659.84;5112085;27;20196;-59
2023/10/29 02:49:10;;;;;;;4.10;1.33;;;;;;;18.73;67.94;98665.56;5131368;27;20181;-58
2023/10/29 02:51:36;;;;;;;4.43;1.60;;;;;;;18.73;68.31;98673.31;5131793;27;20180;-59
2023/10/29 02:54:02;;;;;;;4.30;1.60;;;;;;;18.74;68.28;98669.19;5131894;27;20181;-59
2023/10/29 02:56:28;;;;;;;3.43;1.63;;;;;;;18.73;68.30;98656.16;5141021;27;20181;-59
2023/10/29 02:58:53;;;;;;;2.50;1.37;;;;;;;18.74;68.22;98661.44;5131114;27;20422;-59
2023/10/29 03:01:18;;;;;;;2.73;1.23;;;;;;;18.73;68.51;98668.41;5130497;27;20209;-58
2023/10/29 03:03:46;;;;;;;3.40;1.60;;;;;;;18.72;67.98;98665.97;5111601;27;20227;-59
2023/10/29 03:06:13;;;;;;;2.90;1.40;;;;;;;18.72;68.00;98671.69;5092089;28;20268;-59
2023/10/29 03:08:38;;;;;;;3.30;2.17;;;;;;;18.74;67.99;98663.50;5112552;27;20450;-59
2023/10/29 03:11:04;;;;;;;2.77;1.37;;;;;;;18.73;67.82;98676.16;5112399;27;20558;-59
2023/10/29 03:13:29;;;;;;;3.50;1.60;;;;;;;18.74;68.08;98674.91;5110094;28;20480;-61
2023/10/29 03:15:55;;;;;;;6.40;1.40;;;;;;;18.74;67.77;98680.63;5110163;28;20154;-59
2023/10/29 03:18:21;;;;;;;3.70;1.50;;;;;;;18.72;67.96;98681.06;5110953;28;20138;-59
2023/10/29 03:20:46;;;;;;;3.13;1.60;;;;;;;18.71;68.13;98682.28;5126247;27;20595;-59
2023/10/29 03:23:12;;;;;;;2.50;1.40;;;;;;;18.72;68.03;98675.34;5123200;27;20423;-58
2023/10/29 03:25:38;;;;;;;3.33;1.40;;;;;;;18.73;67.71;98681.88;5111957;28;20162;-58
2023/10/29 03:28:04;;;;;;;4.53;1.20;;;;;;;18.73;67.61;98673.31;5113178;27;20250;-60
2023/10/29 03:30:29;;;;;;;3.10;1.23;;;;;;;18.73;67.95;98682.69;5129802;27;20177;-59
2023/10/29 03:32:54;;;;;;;2.70;1.67;;;;;;;18.71;68.15;98670.84;5131784;27;20191;-59
2023/10/29 03:35:20;;;;;;;2.30;1.60;;;;;;;18.74;67.83;98675.75;5114935;27;20609;-59
2023/10/29 03:37:45;;;;;;;1.87;1.00;;;;;;;18.73;67.69;98685.56;5110745;28;20946;-58
2023/10/29 03:40:11;;;;;;;2.57;1.40;;;;;;;18.74;67.77;98683.50;5118511;27;20209;-58
2023/10/29 03:42:36;;;;;;;2.50;1.50;;;;;;;18.72;67.75;98678.19;5127591;27;20200;-59
2023/10/29 03:45:03;;;;;;;3.33;1.33;;;;;;;18.72;67.67;98681.06;5131046;27;20184;-58
2023/10/29 03:47:28;;;;;;;3.83;1.20;;;;;;;18.73;67.83;98684.75;5130902;27;20230;-59
2023/10/29 03:49:55;;;;;;;2.60;1.00;;;;;;;18.71;67.82;98675.78;5127178;27;20427;-59
2023/10/29 03:52:21;;;;;;;3.40;1.33;;;;;;;18.70;67.41;98674.97;5127389;27;20181;-59
2023/10/29 03:54:47;;;;;;;2.03;1.20;;;;;;;18.69;68.17;98676.19;5126847;27;21089;-58
2023/10/29 03:57:12;;;;;;;3.73;1.40;;;;;;;18.73;67.93;98676.16;5119370;27;20445;-59
2023/10/29 03:59:38;;;;;;;3.77;1.43;;;;;;;18.74;67.43;98667.16;5129644;27;20157;-59
2023/10/29 04:02:03;;;;;;;3.47;1.40;;;;;;;18.74;67.58;98663.50;5125360;27;20177;-59
2023/10/29 04:04:29;;;;;;;2.30;1.30;;;;;;;18.73;67.76;98665.56;5109252;28;20173;-59
2023/10/29 04:06:55;;;;;;;2.57;1.37;;;;;;;18.77;67.56;98668.38;5109184;28;20235;-59
2023/10/29 04:09:20;;;;;;;2.77;1.10;;;;;;;18.75;67.74;98665.09;5090788;28;20185;-59
2023/10/29 04:11:45;;;;;;;2.30;1.20;;;;;;;18.76;67.53;98650.41;5116136;27;20197;-59
2023/10/29 04:14:11;;;;;;;2.63;1.20;;;;;;;18.73;67.57;98654.13;5109971;28;20170;-59
2023/10/29 04:16:36;;;;;;;2.50;1.20;;;;;;;18.71;67.77;98650.84;5110200;28;20598;-58
2023/10/29 04:19:02;;;;;;;2.03;1.10;;;;;;;18.70;68.13;98663.53;5127653;27;20169;-59
2023/10/29 04:21:27;;;;;;;2.67;1.17;;;;;;;18.70;67.79;98656.97;5086602;28;20201;-58
2023/10/29 04:23:53;;;;;;;2.87;1.50;;;;;;;18.72;68.01;98657.38;5089577;28;20178;-64
2023/10/29 04:26:18;;;;;;;2.50;1.40;;;;;;;18.72;67.63;98648.81;5089505;28;20232;-64
2023/10/29 04:28:43;;;;;;;2.07;1.00;;;;;;;18.72;67.73;98655.31;5089456;28;20162;-64
2023/10/29 04:31:09;;;;;;;2.70;1.23;;;;;;;18.72;67.97;98648.81;5073368;28;20194;-64
2023/10/29 04:33:34;;;;;;;2.50;1.43;;;;;;;18.71;68.16;98644.34;5068679;28;20178;-63
2023/10/29 04:36:00;;;;;;;2.23;1.50;;;;;;;18.70;68.00;98634.94;5068598;28;20183;-64
2023/10/29 04:38:25;;;;;;;2.57;1.37;;;;;;;18.72;67.95;98638.19;5068338;28;20168;-64
2023/10/29 04:40:51;;;;;;;3.10;1.10;;;;;;;18.72;68.04;98632.47;5070568;28;20685;-64
2023/10/29 04:43:17;;;;;;;3.40;1.27;;;;;;;18.73;67.55;98630.41;5068449;28;20512;-64
2023/10/29 04:45:42;;;;;;;2.80;1.30;;;;;;;18.72;67.78;98629.59;5068847;28;20409;-64
2023/10/29 04:48:08;;;;;;;3.10;1.63;;;;;;;18.74;67.64;98617.75;5069955;28;20182;-64
2023/10/29 04:50:33;;;;;;;4.70;1.23;;;;;;;18.73;67.71;98613.28;5088731;28;20178;-63
2023/10/29 04:53:00;;;;;;;3.10;1.40;;;;;;;18.73;67.72;98613.28;5089143;28;20232;-63
2023/10/29 04:55:27;;;;;;;2.50;1.50;;;;;;;18.75;67.35;98620.19;5088322;28;20175;-64
2023/10/29 04:57:52;;;;;;;4.30;1.30;;;;;;;18.73;67.68;98614.09;5057588;28;20439;-62
2023/10/29 05:00:18;;;;;;;1.80;1.00;;;;;;;18.74;67.79;98618.56;5088074;28;20931;-64
2023/10/29 05:02:43;;;;;;;2.53;1.10;;;;;;;18.73;67.92;98619.00;5085034;28;20697;-64
2023/10/29 05:05:10;;;;;;;3.00;1.40;;;;;;;18.70;68.04;98626.34;5067793;28;20846;-63
2023/10/29 05:07:36;;;;;;;2.20;1.17;;;;;;;18.73;67.66;98644.72;5081931;28;20189;-63
2023/10/29 05:10:02;;;;;;;3.27;1.50;;;;;;;18.73;67.66;98647.56;5074825;28;20429;-64
2023/10/29 05:12:27;;;;;;;2.40;1.20;;;;;;;18.73;67.39;98654.13;5069003;28;20199;-64
2023/10/29 05:14:53;;;;;;;2.40;1.20;;;;;;;18.73;67.50;98668.41;5071051;28;20538;-63
2023/10/29 05:17:18;;;;;;;2.20;1.20;;;;;;;18.73;67.70;98674.13;5068806;28;20175;-64
2023/10/29 05:19:44;;;;;;;2.43;1.20;;;;;;;18.71;68.22;98675.78;5068417;28;20215;-64
2023/10/29 05:22:10;;;;;;;1.97;1.10;;;;;;;18.71;68.07;98676.56;5068949;28;20183;-64
2023/10/29 05:24:35;;;;;;;2.17;1.30;;;;;;;18.74;67.59;98675.75;5080764;28;20183;-64
2023/10/29 05:27:01;;;;;;;2.80;1.27;;;;;;;18.72;67.86;98683.13;5089235;28;20170;-63
2023/10/29 05:29:27;;;;;;;3.70;1.60;;;;;;;18.72;67.67;98678.19;5089692;28;20678;-64
2023/10/29 05:31:53;;;;;;;3.70;1.40;;;;;;;18.74;67.48;98663.50;5074190;28;20186;-64
2023/10/29 05:34:18;;;;;;;2.60;1.37;;;;;;;18.75;67.66;98671.66;5080005;28;20776;-59
2023/10/29 05:36:44;;;;;;;3.20;1.40;;;;;;;18.75;67.64;98668.78;5088295;28;20522;-59
2023/10/29 05:39:09;;;;;;;3.37;1.00;;;;;;;18.78;67.57;98676.53;5091852;28;20163;-59
2023/10/29 05:41:35;;;;;;;1.83;1.20;;;;;;;18.73;67.60;98691.28;5089835;28;20198;-59
2023/10/29 05:44:01;;;;;;;2.73;1.30;;;;;;;18.75;67.48;98691.66;5071525;28;20542;-59
2023/10/29 05:46:27;;;;;;;2.70;1.17;;;;;;;18.73;67.89;98688.41;5070670;28;20179;-59
2023/10/29 05:48:52;;;;;;;3.67;1.13;;;;;;;18.73;67.64;98685.56;5085095;28;20767;-59
2023/10/29 05:51:20;;;;;;;2.37;1.20;;;;;;;18.73;67.53;98682.69;5085574;28;20433;-59
2023/10/29 05:53:49;;;;;;;2.80;1.37;;;;;;;18.72;67.48;98675.34;5081211;28;20209;-59
2023/10/29 05:56:14;;;;;;;3.93;1.50;;;;;;;18.72;67.78;98689.63;5090208;28;20457;-60
2023/10/29 05:58:40;;;;;;;2.80;1.03;;;;;;;18.75;67.48;98699.41;5088654;28;20769;-60
2023/10/29 06:01:05;;;;;;;2.00;1.03;;;;;;;18.75;67.59;98705.94;5080687;28;20198;-59
2023/10/29 06:03:31;;;;;;;2.60;1.20;;;;;;;18.75;67.48;98711.66;5070767;28;20183;-59
2023/10/29 06:05:56;;;;;;;3.67;1.30;;;;;;;18.75;67.72;98708.81;5056138;28;20639;-59
2023/10/29 06:08:22;;;;;;;2.40;1.20;;;;;;;18.77;67.44;98720.63;5087082;28;20178;-60
2023/10/29 06:10:48;;;;;;;3.07;1.27;;;;;;;18.72;67.90;98732.50;5091726;28;20206;-59
2023/10/29 06:13:13;;;;;;;2.30;1.00;;;;;;;18.77;67.39;98743.50;5076519;28;20266;-59
2023/10/29 06:15:39;;;;;;;2.70;1.33;;;;;;;18.76;67.54;98753.31;5071421;28;20783;-59
2023/10/29 06:18:06;;;;;;;2.67;1.10;;;;;;;18.75;67.37;98773.75;5073545;28;20187;-59
2023/10/29 06:20:32;;;;;;;2.00;1.03;;;;;;;18.76;67.67;98763.97;5084257;28;20736;-59
2023/10/29 06:22:57;;;;;;;3.20;1.40;;;;;;;18.77;67.75;98782.72;5097696;28;20428;-60
2023/10/29 06:25:22;;;;;;;2.80;1.00;;;;;;;18.74;67.92;98783.56;5109153;28;20196;-59
2023/10/29 06:27:48;;;;;;;3.10;1.40;;;;;;;18.76;68.07;98781.09;5111796;28;20675;-59
2023/10/29 06:30:14;;;;;;;1.73;0.97;;;;;;;18.76;67.55;98809.69;5104035;28;20981;-59
2023/10/29 06:32:40;;;;;;;3.07;1.20;;;;;;;18.77;67.59;98806.41;5091226;28;20286;-59
2023/10/29 06:35:06;;;;;;;2.13;1.20;;;;;;;18.77;67.54;98805.59;5091318;28;20400;-59
2023/10/29 06:37:31;;;;;;;1.87;1.07;;;;;;;18.76;67.67;98810.50;5093710;28;20197;-59
2023/10/29 06:39:57;;;;;;;2.63;1.13;;;;;;;18.76;67.56;98804.78;5072897;28;20183;-59
2023/10/29 06:42:22;;;;;;;2.80;1.37;;;;;;;18.77;67.55;98811.31;5092668;28;20181;-59
2023/10/29 06:44:47;;;;;;;2.33;1.50;;;;;;;18.76;67.71;98813.34;5090835;28;20711;-64
2023/10/29 06:47:14;;;;;;;3.30;0.97;;;;;;;18.76;67.81;98821.94;5090165;28;20170;-64
2023/10/29 06:49:40;;;;;;;3.67;1.30;;;;;;;18.76;67.70;98821.94;5091042;28;20191;-63
2023/10/29 06:52:06;;;;;;;2.60;1.53;;;;;;;18.78;67.50;98813.75;5088735;28;20484;-63
2023/10/29 06:54:31;;;;;;;2.00;1.10;;;;;;;18.76;67.68;98816.22;5104846;28;20178;-64
2023/10/29 06:56:57;;;;;;;2.73;1.20;;;;;;;18.77;67.90;98817.03;5101067;28;20170;-64
2023/10/29 06:59:22;;;;;;;2.57;0.97;;;;;;;18.78;67.88;98830.09;5089454;28;20228;-64
2023/10/29 07:01:49;;;;;;;3.13;1.43;;;;;;;18.78;67.63;98830.09;5098687;28;20217;-64
2023/10/29 07:04:15;;;;;;;1.83;0.97;;;;;;;18.75;67.64;98842.34;5110789;28;20227;-64
2023/10/29 07:06:40;;;;;;;2.17;1.03;;;;;;;18.78;67.70;98847.25;5099735;28;20432;-64
2023/10/29 07:09:05;;;;;;;3.83;1.40;;;;;;;18.75;67.77;98848.06;5091504;28;20178;-64
2023/10/29 07:11:31;;;;;;;5.43;1.40;;;;;;;18.79;67.72;98851.72;5107134;28;20190;-64
2023/10/29 07:13:56;;;;;;;4.27;1.30;;;;;;;18.77;67.66;98857.84;5090184;28;20208;-64
2023/10/29 07:16:22;;;;;;;2.60;1.20;;;;;;;18.76;67.75;98867.69;5089338;28;20580;-64
2023/10/29 07:18:47;;;;;;;1.90;1.00;;;;;;;18.77;67.54;98879.94;5092249;28;20534;-63
2023/10/29 07:21:14;;;;;;;2.07;1.13;;;;;;;18.79;67.60;98877.47;5090067;28;20305;-64
2023/10/29 07:23:40;;;;;;;2.80;1.40;;;;;;;18.77;67.97;98880.72;5102628;28;20226;-65
2023/10/29 07:26:06;;;;;;;1.70;0.90;;;;;;;18.79;68.07;98884.00;5110400;28;20894;-64
2023/10/29 07:28:31;;;;;;;4.63;1.30;;;;;;;18.78;67.79;98876.66;5093825;28;20439;-64
2023/10/29 07:30:57;;;;;;;2.13;1.00;;;;;;;18.79;67.84;98894.63;5089350;28;20188;-64
2023/10/29 07:33:22;;;;;;;2.23;1.03;;;;;;;18.77;67.77;98874.22;5089439;28;20175;-64
2023/10/29 07:35:48;;;;;;;2.23;1.10;;;;;;;18.77;67.51;98875.00;5090751;28;20218;-63
2023/10/29 07:38:13;;;;;;;2.53;1.20;;;;;;;18.80;67.66;98871.34;5094079;28;20182;-64
2023/10/29 07:40:38;;;;;;;2.60;1.33;;;;;;;18.78;67.48;98868.09;5109870;28;20225;-64
2023/10/29 07:43:04;;;;;;;2.37;1.10;;;;;;;18.79;67.58;98871.75;5094716;28;20189;-62
2023/10/29 07:45:30;;;;;;;2.80;1.10;;;;;;;18.79;67.49;98869.72;5088917;28;20166;-63
2023/10/29 07:47:55;;;;;;;3.20;1.10;;;;;;;18.78;67.79;98856.66;5091595;28;20182;-63
2023/10/29 07:50:21;;;;;;;1.90;1.00;;;;;;;18.81;67.99;98860.72;5102914;28;20416;-63
2023/10/29 07:52:47;;;;;;;2.47;1.13;;;;;;;18.82;67.77;98859.47;5108518;28;20181;-64
2023/10/29 07:55:12;;;;;;;3.90;1.10;;;;;;;18.80;67.80;98851.31;5101929;28;20183;-59
2023/10/29 07:57:40;;;;;;;2.43;1.27;;;;;;;18.82;67.56;98848.84;5109195;28;20154;-59
2023/10/29 08:00:09;;;;;;;1.60;0.83;;;;;;;18.81;67.77;98850.09;5108370;28;20178;-60
2023/10/29 08:02:35;;;;;;;2.23;1.10;;;;;;;18.82;67.57;98848.03;5092141;28;20524;-59
2023/10/29 08:05:01;;;;;;;2.23;1.23;;;;;;;18.81;67.36;98830.06;5096701;28;20432;-59
2023/10/29 08:07:28;;;;;;;3.70;1.10;;;;;;;18.82;67.63;98830.88;5089293;28;20413;-59
2023/10/29 08:09:56;;;;;;;2.63;1.10;;;;;;;18.84;67.45;98837.81;5107901;28;20173;-59
2023/10/29 08:12:22;;;;;;;2.33;1.10;;;;;;;18.82;68.07;98828.81;5109970;28;20518;-59
2023/10/29 08:14:47;;;;;;;2.10;1.00;;;;;;;18.82;67.68;98822.31;5097482;28;20489;-59
2023/10/29 08:17:17;;;;;;;2.63;0.97;;;;;;;18.83;67.43;98815.34;5088483;28;20219;-60
2023/10/29 08:19:42;;;;;;;1.80;0.80;;;;;;;18.83;67.29;98821.06;5091154;28;21014;-59
2023/10/29 08:22:08;;;;;;;2.73;1.30;;;;;;;18.81;67.34;98815.78;5092322;28;20503;-59
2023/10/29 08:24:33;;;;;;;3.23;1.20;;;;;;;18.82;67.47;98808.81;5109027;28;20173;-60
2023/10/29 08:26:59;;;;;;;2.37;1.00;;;;;;;18.84;67.71;98817.81;5108656;28;20562;-60
2023/10/29 08:29:25;;;;;;;2.50;1.10;;;;;;;18.82;67.83;98808.81;5101754;28;20630;-59
2023/10/29 08:31:50;;;;;;;2.43;1.20;;;;;;;18.85;67.27;98810.84;5100915;28;20193;-59
2023/10/29 08:34:15;;;;;;;1.80;0.80;;;;;;;18.82;67.56;98808.81;5108193;28;20166;-59
2023/10/29 08:36:41;;;;;;;2.17;1.10;;;;;;;18.82;67.46;98800.22;5107485;28;20181;-59
2023/10/29 08:39:06;;;;;;;1.80;0.80;;;;;;;18.83;67.46;98789.63;5107530;28;20162;-59
2023/10/29 08:41:32;;;;;;;2.07;1.13;;;;;;;18.84;67.50;98792.06;5090454;28;20221;-59
2023/10/29 08:43:57;;;;;;;2.20;0.90;;;;;;;18.84;67.73;98780.63;5086771;28;20182;-60
2023/10/29 08:46:23;;;;;;;2.43;1.17;;;;;;;18.82;67.54;98771.66;5094498;28;20185;-59
2023/10/29 08:48:48;;;;;;;1.70;0.90;;;;;;;18.80;67.66;98768.41;5105704;28;20185;-59
2023/10/29 08:51:15;;;;;;;2.53;1.20;;;;;;;18.81;67.96;98770.03;5088571;28;20641;-59
2023/10/29 08:53:40;;;;;;;1.90;0.87;;;;;;;18.84;67.89;98772.06;5098814;28;20688;-58
2023/10/29 08:56:07;;;;;;;2.20;1.20;;;;;;;18.83;67.65;98781.03;5104505;28;20447;-59
2023/10/29 08:58:32;;;;;;;2.00;1.03;;;;;;;18.82;67.93;98780.22;5108690;28;20524;-59
2023/10/29 09:00:58;;;;;;;2.30;1.27;;;;;;;18.82;67.72;98777.34;5095868;28;20468;-59
2023/10/29 09:03:24;;;;;;;1.57;0.80;;;;;;;18.83;67.83;98775.31;5072179;28;20273;-59
2023/10/29 09:05:50;;;;;;;2.47;1.50;;;;;;;18.82;67.59;98765.91;5092927;28;20246;-64
2023/10/29 09:08:15;;;;;;;2.33;1.10;;;;;;;18.82;67.94;98771.66;5093176;28;20420;-64
2023/10/29 09:10:42;;;;;;;2.10;1.10;;;;;;;18.86;67.60;98768.78;5103938;27;20227;-63
2023/10/29 09:13:09;;;;;;;2.87;1.00;;;;;;;18.84;67.24;98777.78;5109995;28;20596;-63
2023/10/29 09:15:34;;;;;;;1.93;1.07;;;;;;;18.83;67.64;98770.44;5092953;28;21109;-63
2023/10/29 09:18:00;;;;;;;2.20;1.10;;;;;;;18.84;67.65;98759.78;5092801;28;20443;-63
2023/10/29 09:20:25;;;;;;;2.37;1.20;;;;;;;18.82;67.92;98751.63;5094894;28;20221;-64
2023/10/29 09:22:50;;;;;;;1.80;1.00;;;;;;;18.85;67.32;98750.81;5098184;28;20184;-64
2023/10/29 09:25:16;;;;;;;2.13;1.10;;;;;;;18.87;67.35;98764.69;5093468;28;20186;-64
2023/10/29 09:27:41;;;;;;;2.27;1.13;;;;;;;18.85;67.82;98764.28;5094262;28;20185;-64
2023/10/29 09:30:07;;;;;;;2.00;1.10;;;;;;;18.82;68.10;98754.50;5092607;28;20197;-64
2023/10/29 09:32:35;;;;;;;2.57;1.10;;;;;;;18.84;67.82;98760.63;5091003;28;20272;-63
2023/10/29 09:35:01;;;;;;;2.10;1.13;;;;;;;18.84;67.55;98754.06;5090819;28;20510;-64
2023/10/29 09:37:26;;;;;;;1.80;1.00;;;;;;;18.87;67.68;98765.47;5111696;28;20867;-64
2023/10/29 09:39:51;;;;;;;2.43;1.20;;;;;;;18.86;67.77;98765.91;5111424;28;20184;-63
2023/10/29 09:42:18;;;;;;;2.73;1.27;;;;;;;18.85;67.27;98767.94;5107565;28;20792;-63
2023/10/29 09:44:43;;;;;;;2.23;1.07;;;;;;;18.90;67.71;98763.81;5092510;28;20181;-64
2023/10/29 09:47:14;;;;;;;2.00;1.17;;;;;;;18.91;67.20;98772.00;5111409;28;20976;-64
2023/10/29 09:49:39;;;;;;;2.40;1.27;;;;;;;18.89;67.37;98771.59;5111441;28;20265;-64
2023/10/29 09:52:06;;;;;;;2.73;1.30;;;;;;;18.89;67.49;98779.34;5112669;28;20834;-64
2023/10/29 09:54:31;;;;;;;2.40;1.10;;;;;;;18.90;67.43;98758.94;5112360;28;20793;-63
2023/10/29 09:56:56;;;;;;;2.00;1.20;;;;;;;18.90;67.62;98775.25;5097545;28;20428;-64
2023/10/29 09:59:23;;;;;;;2.50;1.00;;;;;;;18.89;67.34;98767.91;5083395;28;20247;-64
2023/10/29 10:01:48;;;;;;;2.20;1.10;;;;;;;18.87;67.41;98767.53;5108951;27;20210;-64
2023/10/29 10:04:14;;;;;;;2.50;1.10;;;;;;;18.88;67.68;98758.56;5111919;28;20628;-63
2023/10/29 10:06:39;;;;;;;2.47;1.00;;;;;;;18.87;67.51;98756.91;5105493;28;20482;-63
2023/10/29 10:09:05;;;;;;;2.20;1.10;;;;;;;18.88;67.74;98755.69;5072784;28;20182;-64
2023/10/29 10:11:31;;;;;;;2.83;1.23;;;;;;;18.88;67.73;98749.97;5091418;28;20186;-64
2023/10/29 10:13:56;;;;;;;1.80;0.90;;;;;;;18.86;67.79;98752.41;5110115;28;20430;-64
2023/10/29 10:16:22;;;;;;;3.83;1.20;;;;;;;18.87;67.69;98751.19;5111162;28;20170;-64
2023/10/29 10:18:48;;;;;;;2.30;1.13;;;;;;;18.88;67.43;98747.13;5099247;28;20182;-64
2023/10/29 10:21:13;;;;;;;1.70;1.00;;;;;;;18.90;67.06;98749.53;5072061;28;20231;-64
2023/10/29 10:23:51;;;;;;;1.97;0.93;;;;;;;18.91;67.58;98748.31;5080702;28;20429;-63
2023/10/29 10:26:30;;;;;;;2.30;1.20;;;;;;;18.92;67.46;98745.00;5071105;28;20169;-64
2023/10/29 10:28:56;;;;;;;1.97;1.00;;;;;;;18.90;67.71;98741.78;5090161;28;20420;-64
2023/10/29 10:31:22;;;;;;;3.67;1.13;;;;;;;18.88;67.69;98738.53;5090425;28;20511;-64
2023/10/29 10:33:48;;;;;;;2.00;1.00;;;;;;;18.88;67.54;98743.44;5080503;28;20437;-64
2023/10/29 10:36:14;;;;;;;2.10;1.00;;;;;;;18.93;67.17;98740.13;5071574;28;20189;-63
2023/10/29 10:38:52;;;;;;;2.03;1.17;;;;;;;18.92;67.68;98750.72;5089377;28;20899;-63
2023/10/29 10:41:17;;;;;;;1.70;0.90;;;;;;;18.91;67.72;98743.38;5087759;28;20620;-64
2023/10/29 10:43:43;;;;;;;2.40;1.00;;;;;;;18.92;67.67;98749.94;5090983;28;20421;-63
2023/10/29 10:46:09;;;;;;;2.53;1.30;;;;;;;18.92;67.64;98739.28;5073239;28;20197;-64
2023/10/29 10:48:35;;;;;;;1.90;1.00;;;;;;;18.90;67.68;98733.19;5046646;28;20197;-64
2023/10/29 10:51:01;;;;;;;2.23;1.03;;;;;;;18.91;67.60;98740.53;5070877;28;20421;-64
2023/10/29 10:53:26;;;;;;;2.43;1.00;;;;;;;18.90;67.38;98727.47;5063089;28;20607;-64
2023/10/29 10:55:52;;;;;;;1.73;0.83;;;;;;;18.92;67.49;98733.56;5093193;28;20190;-64
2023/10/29 10:58:18;;;;;;;1.97;0.90;;;;;;;18.91;67.59;98723.38;5072995;28;20191;-63
2023/10/29 11:00:43;;;;;;;1.93;1.10;;;;;;;18.92;67.73;98733.56;5072930;28;20461;-64
2023/10/29 11:03:09;;;;;;;2.10;0.97;;;;;;;18.90;67.81;98727.47;5070618;28;20175;-64
2023/10/29 11:05:35;;;;;;;1.90;0.80;;;;;;;18.91;67.59;98720.50;5052703;28;20185;-64
2023/10/29 11:08:02;;;;;;;2.50;1.00;;;;;;;18.90;67.45;98718.91;5073257;28;20439;-64
2023/10/29 11:10:27;;;;;;;2.07;1.13;;;;;;;18.92;67.65;98730.72;5068068;28;20189;-63
2023/10/29 11:12:53;;;;;;;1.80;1.00;;;;;;;18.93;67.37;98722.97;5068665;28;20841;-64
2023/10/29 11:15:19;;;;;;;2.33;1.00;;;;;;;18.94;67.79;98721.72;5090366;28;20910;-64
2023/10/29 11:18:03;;;;;;;2.30;1.23;;;;;;;18.92;67.67;98719.28;5090916;28;20480;-63
2023/10/29 11:20:38;;;;;;;1.93;0.80;;;;;;;18.94;67.58;98721.72;5100724;28;20996;-64
2023/10/29 11:23:12;;;;;;;2.47;1.20;;;;;;;18.94;67.60;98722.53;5099467;28;20415;-64
2023/10/29 11:25:38;;;;;;;2.13;0.90;;;;;;;18.93;67.61;98726.66;5109117;28;20914;-59
2023/10/29 11:28:04;;;;;;;2.30;1.20;;;;;;;18.94;67.75;98716.00;5095415;28;20440;-59